sensor_id;sensor_type;location;lat;lon;timestamp;P1;durP1;ratioP1;P2;durP2;ratioP2
75768;SDS011;64379;48.888;8.330;2022-12-29T00:02:09;3.78;;;1.10;;
75768;SDS011;64379;48.888;8.330;2022-12-29T00:04:35;11.35;;;1.27;;
75768;SDS011;64379;48.888;8.330;2022-12-29T00:07:01;3.88;;;1.10;;
75768;SDS011;64379;48.888;8.330;2022-12-29T00:09:29;2.85;;;0.80;;
75768;SDS011;64379;48.888;8.330;2022-12-29T00:11:55;6.07;;;1.38;;
75768;SDS011;64379;48.888;8.330;2022-12-29T00:14:21;4.97;;;1.15;;
75768;SDS011;64379;48.888;8.330;2022-12-29T00:17:05;3.17;;;1.20;;
75768;SDS011;64379;48.888;8.330;2022-12-29T00:19:31;3.78;;;1.10;;
75768;SDS011;64379;48.888;8.330;2022-12-29T00:22:15;3.40;;;1.00;;
75768;SDS011;64379;48.888;8.330;2022-12-29T00:24:59;2.08;;;0.90;;
75768;SDS011;64379;48.888;8.330;2022-12-29T00:27:34;4.10;;;1.10;;
75768;SDS011;64379;48.888;8.330;2022-12-29T00:30:19;2.97;;;0.88;;
75768;SDS011;64379;48.888;8.330;2022-12-29T00:33:09;2.22;;;1.02;;
75768;SDS011;64379;48.888;8.330;2022-12-29T00:35:58;4.72;;;1.15;;
75768;SDS011;64379;48.888;8.330;2022-12-29T00:38:27;3.63;;;0.90;;
75768;SDS011;64379;48.888;8.330;2022-12-29T00:41:12;3.35;;;1.13;;
75768;SDS011;64379;48.888;8.330;2022-12-29T00:43:56;2.80;;;0.80;;
75768;SDS011;64379;48.888;8.330;2022-12-29T00:46:34;3.55;;;1.00;;
75768;SDS011;64379;48.888;8.330;2022-12-29T00:49:04;2.15;;;0.88;;
75768;SDS011;64379;48.888;8.330;2022-12-29T00:51:49;2.50;;;0.80;;
75768;SDS011;64379;48.888;8.330;2022-12-29T00:54:16;2.25;;;1.10;;
75768;SDS011;64379;48.888;8.330;2022-12-29T00:56:41;1.83;;;0.82;;
75768;SDS011;64379;48.888;8.330;2022-12-29T00:59:08;2.75;;;0.90;;
75768;SDS011;64379;48.888;8.330;2022-12-29T01:01:36;2.95;;;0.95;;
75768;SDS011;64379;48.888;8.330;2022-12-29T01:04:03;3.08;;;0.88;;
75768;SDS011;64379;48.888;8.330;2022-12-29T01:06:29;3.15;;;0.80;;
75768;SDS011;64379;48.888;8.330;2022-12-29T01:08:55;3.63;;;1.00;;
75768;SDS011;64379;48.888;8.330;2022-12-29T01:11:39;3.85;;;1.58;;
75768;SDS011;64379;48.888;8.330;2022-12-29T01:14:05;2.45;;;0.90;;
75768;SDS011;64379;48.888;8.330;2022-12-29T01:16:32;4.55;;;1.10;;
75768;SDS011;64379;48.888;8.330;2022-12-29T01:18:58;3.03;;;0.90;;
75768;SDS011;64379;48.888;8.330;2022-12-29T01:21:24;4.78;;;1.10;;
75768;SDS011;64379;48.888;8.330;2022-12-29T01:23:50;4.78;;;0.98;;
75768;SDS011;64379;48.888;8.330;2022-12-29T01:26:16;4.03;;;1.35;;
75768;SDS011;64379;48.888;8.330;2022-12-29T01:28:42;2.05;;;0.93;;
75768;SDS011;64379;48.888;8.330;2022-12-29T01:31:08;2.67;;;0.88;;
75768;SDS011;64379;48.888;8.330;2022-12-29T01:33:35;2.00;;;0.93;;
75768;SDS011;64379;48.888;8.330;2022-12-29T01:36:01;2.30;;;1.05;;
75768;SDS011;64379;48.888;8.330;2022-12-29T01:38:28;1.73;;;0.80;;
75768;SDS011;64379;48.888;8.330;2022-12-29T01:40:53;3.63;;;0.80;;
75768;SDS011;64379;48.888;8.330;2022-12-29T01:43:19;4.32;;;1.00;;
75768;SDS011;64379;48.888;8.330;2022-12-29T01:45:48;2.55;;;0.88;;
75768;SDS011;64379;48.888;8.330;2022-12-29T01:48:16;3.15;;;0.90;;
75768;SDS011;64379;48.888;8.330;2022-12-29T01:50:45;4.18;;;1.00;;
75768;SDS011;64379;48.888;8.330;2022-12-29T01:53:26;3.13;;;1.25;;
75768;SDS011;64379;48.888;8.330;2022-12-29T01:55:55;2.05;;;0.90;;
75768;SDS011;64379;48.888;8.330;2022-12-29T01:58:24;2.92;;;0.95;;
75768;SDS011;64379;48.888;8.330;2022-12-29T02:00:54;6.28;;;1.00;;
75768;SDS011;64379;48.888;8.330;2022-12-29T02:03:19;5.60;;;1.00;;
75768;SDS011;64379;48.888;8.330;2022-12-29T02:05:51;3.85;;;1.00;;
75768;SDS011;64379;48.888;8.330;2022-12-29T02:08:28;3.63;;;0.90;;
75768;SDS011;64379;48.888;8.330;2022-12-29T02:10:55;2.67;;;1.00;;
75768;SDS011;64379;48.888;8.330;2022-12-29T02:13:24;2.17;;;0.82;;
75768;SDS011;64379;48.888;8.330;2022-12-29T02:26:58;0.73;;;0.63;;
75768;SDS011;64379;48.888;8.330;2022-12-29T02:32:29;2.60;;;1.20;;
75768;SDS011;64379;48.888;8.330;2022-12-29T02:46:18;2.53;;;0.90;;
75768;SDS011;64379;48.888;8.330;2022-12-29T02:52:20;5.45;;;0.90;;
75768;SDS011;64379;48.888;8.330;2022-12-29T02:54:52;2.00;;;0.88;;
75768;SDS011;64379;48.888;8.330;2022-12-29T03:18:43;2.78;;;1.00;;
75768;SDS011;64379;48.888;8.330;2022-12-29T03:24:17;1.45;;;0.82;;
75768;SDS011;64379;48.888;8.330;2022-12-29T03:26:44;3.47;;;1.08;;
75768;SDS011;64379;48.888;8.330;2022-12-29T03:29:12;3.85;;;0.93;;
75768;SDS011;64379;48.888;8.330;2022-12-29T03:31:40;2.50;;;0.95;;
75768;SDS011;64379;48.888;8.330;2022-12-29T03:34:07;2.22;;;0.95;;
75768;SDS011;64379;48.888;8.330;2022-12-29T03:36:38;2.60;;;0.90;;
75768;SDS011;64379;48.888;8.330;2022-12-29T03:39:09;2.17;;;0.73;;
75768;SDS011;64379;48.888;8.330;2022-12-29T03:41:37;3.40;;;0.98;;
75768;SDS011;64379;48.888;8.330;2022-12-29T03:44:05;2.63;;;1.00;;
75768;SDS011;64379;48.888;8.330;2022-12-29T03:46:31;1.55;;;0.80;;
75768;SDS011;64379;48.888;8.330;2022-12-29T03:48:57;3.33;;;0.90;;
75768;SDS011;64379;48.888;8.330;2022-12-29T03:51:22;3.90;;;1.08;;
75768;SDS011;64379;48.888;8.330;2022-12-29T03:53:48;2.75;;;1.15;;
75768;SDS011;64379;48.888;8.330;2022-12-29T03:56:14;2.63;;;1.10;;
75768;SDS011;64379;48.888;8.330;2022-12-29T03:58:39;2.40;;;0.90;;
75768;SDS011;64379;48.888;8.330;2022-12-29T04:01:05;4.30;;;0.95;;
75768;SDS011;64379;48.888;8.330;2022-12-29T04:03:30;2.45;;;0.80;;
75768;SDS011;64379;48.888;8.330;2022-12-29T04:05:56;5.03;;;1.17;;
75768;SDS011;64379;48.888;8.330;2022-12-29T04:08:22;2.95;;;1.00;;
75768;SDS011;64379;48.888;8.330;2022-12-29T04:10:48;2.88;;;1.00;;
75768;SDS011;64379;48.888;8.330;2022-12-29T04:13:14;2.40;;;0.80;;
75768;SDS011;64379;48.888;8.330;2022-12-29T04:15:40;1.42;;;0.63;;
75768;SDS011;64379;48.888;8.330;2022-12-29T04:18:07;1.98;;;0.75;;
75768;SDS011;64379;48.888;8.330;2022-12-29T04:20:32;2.08;;;0.95;;
75768;SDS011;64379;48.888;8.330;2022-12-29T04:23:17;2.20;;;1.10;;
75768;SDS011;64379;48.888;8.330;2022-12-29T04:25:44;2.10;;;0.77;;
75768;SDS011;64379;48.888;8.330;2022-12-29T04:28:12;3.17;;;0.80;;
75768;SDS011;64379;48.888;8.330;2022-12-29T04:30:38;3.10;;;1.10;;
75768;SDS011;64379;48.888;8.330;2022-12-29T04:33:03;3.63;;;1.08;;
75768;SDS011;64379;48.888;8.330;2022-12-29T04:35:29;3.30;;;0.90;;
75768;SDS011;64379;48.888;8.330;2022-12-29T04:37:54;2.20;;;1.00;;
75768;SDS011;64379;48.888;8.330;2022-12-29T04:40:20;1.58;;;0.82;;
75768;SDS011;64379;48.888;8.330;2022-12-29T04:42:46;3.38;;;1.05;;
75768;SDS011;64379;48.888;8.330;2022-12-29T04:45:11;2.50;;;1.00;;
75768;SDS011;64379;48.888;8.330;2022-12-29T04:47:37;2.85;;;1.00;;
75768;SDS011;64379;48.888;8.330;2022-12-29T04:50:03;2.83;;;0.98;;
75768;SDS011;64379;48.888;8.330;2022-12-29T04:52:29;1.70;;;0.85;;
75768;SDS011;64379;48.888;8.330;2022-12-29T04:54:54;2.70;;;1.10;;
75768;SDS011;64379;48.888;8.330;2022-12-29T04:57:20;4.25;;;1.13;;
75768;SDS011;64379;48.888;8.330;2022-12-29T04:59:46;4.05;;;1.02;;
75768;SDS011;64379;48.888;8.330;2022-12-29T05:02:11;2.58;;;0.93;;
75768;SDS011;64379;48.888;8.330;2022-12-29T05:04:37;3.03;;;1.17;;
75768;SDS011;64379;48.888;8.330;2022-12-29T05:07:02;2.67;;;1.08;;
75768;SDS011;64379;48.888;8.330;2022-12-29T05:09:28;2.40;;;1.02;;
75768;SDS011;64379;48.888;8.330;2022-12-29T05:11:54;3.20;;;1.00;;
75768;SDS011;64379;48.888;8.330;2022-12-29T05:14:20;3.92;;;1.13;;
75768;SDS011;64379;48.888;8.330;2022-12-29T05:16:46;2.38;;;1.08;;
75768;SDS011;64379;48.888;8.330;2022-12-29T05:19:12;4.53;;;1.40;;
75768;SDS011;64379;48.888;8.330;2022-12-29T05:21:37;3.95;;;1.10;;
75768;SDS011;64379;48.888;8.330;2022-12-29T05:24:03;5.93;;;1.50;;
75768;SDS011;64379;48.888;8.330;2022-12-29T05:26:29;3.05;;;1.13;;
75768;SDS011;64379;48.888;8.330;2022-12-29T05:28:54;2.60;;;1.10;;
75768;SDS011;64379;48.888;8.330;2022-12-29T05:31:20;3.53;;;1.15;;
75768;SDS011;64379;48.888;8.330;2022-12-29T05:33:45;1.83;;;0.90;;
75768;SDS011;64379;48.888;8.330;2022-12-29T05:36:11;3.05;;;1.17;;
75768;SDS011;64379;48.888;8.330;2022-12-29T05:38:38;1.70;;;1.00;;
75768;SDS011;64379;48.888;8.330;2022-12-29T05:41:03;3.08;;;1.48;;
75768;SDS011;64379;48.888;8.330;2022-12-29T05:43:29;2.05;;;1.00;;
75768;SDS011;64379;48.888;8.330;2022-12-29T05:45:55;2.72;;;1.00;;
75768;SDS011;64379;48.888;8.330;2022-12-29T05:48:21;2.47;;;1.10;;
75768;SDS011;64379;48.888;8.330;2022-12-29T05:50:50;2.13;;;1.08;;
75768;SDS011;64379;48.888;8.330;2022-12-29T05:53:17;4.95;;;0.80;;
75768;SDS011;64379;48.888;8.330;2022-12-29T05:55:46;1.98;;;0.95;;
75768;SDS011;64379;48.888;8.330;2022-12-29T05:58:12;2.38;;;1.02;;
75768;SDS011;64379;48.888;8.330;2022-12-29T06:00:38;3.90;;;1.33;;
75768;SDS011;64379;48.888;8.330;2022-12-29T06:03:03;4.07;;;0.90;;
75768;SDS011;64379;48.888;8.330;2022-12-29T06:05:29;3.63;;;1.00;;
75768;SDS011;64379;48.888;8.330;2022-12-29T06:07:55;3.03;;;1.30;;
75768;SDS011;64379;48.888;8.330;2022-12-29T06:10:20;2.78;;;0.90;;
75768;SDS011;64379;48.888;8.330;2022-12-29T06:12:46;2.03;;;1.02;;
75768;SDS011;64379;48.888;8.330;2022-12-29T06:15:12;1.42;;;0.90;;
75768;SDS011;64379;48.888;8.330;2022-12-29T06:17:38;4.43;;;1.00;;
75768;SDS011;64379;48.888;8.330;2022-12-29T06:20:04;2.42;;;1.08;;
75768;SDS011;64379;48.888;8.330;2022-12-29T06:22:30;3.47;;;1.30;;
75768;SDS011;64379;48.888;8.330;2022-12-29T06:24:55;3.90;;;1.20;;
75768;SDS011;64379;48.888;8.330;2022-12-29T06:27:21;2.35;;;1.05;;
75768;SDS011;64379;48.888;8.330;2022-12-29T06:29:47;5.53;;;1.08;;
75768;SDS011;64379;48.888;8.330;2022-12-29T06:32:12;1.92;;;0.90;;
75768;SDS011;64379;48.888;8.330;2022-12-29T06:34:38;2.75;;;1.20;;
75768;SDS011;64379;48.888;8.330;2022-12-29T06:37:04;4.18;;;1.10;;
75768;SDS011;64379;48.888;8.330;2022-12-29T06:39:29;3.58;;;1.10;;
75768;SDS011;64379;48.888;8.330;2022-12-29T06:41:55;5.60;;;1.38;;
75768;SDS011;64379;48.888;8.330;2022-12-29T06:44:21;2.40;;;0.98;;
75768;SDS011;64379;48.888;8.330;2022-12-29T06:46:47;2.28;;;0.98;;
75768;SDS011;64379;48.888;8.330;2022-12-29T06:49:13;3.88;;;0.90;;
75768;SDS011;64379;48.888;8.330;2022-12-29T06:51:39;3.75;;;1.40;;
75768;SDS011;64379;48.888;8.330;2022-12-29T06:54:04;4.20;;;1.15;;
75768;SDS011;64379;48.888;8.330;2022-12-29T06:56:30;3.75;;;1.13;;
75768;SDS011;64379;48.888;8.330;2022-12-29T06:58:56;4.07;;;0.90;;
75768;SDS011;64379;48.888;8.330;2022-12-29T07:01:22;3.70;;;1.20;;
75768;SDS011;64379;48.888;8.330;2022-12-29T07:03:47;2.38;;;0.80;;
75768;SDS011;64379;48.888;8.330;2022-12-29T07:06:13;3.22;;;0.98;;
75768;SDS011;64379;48.888;8.330;2022-12-29T07:08:39;3.33;;;1.10;;
75768;SDS011;64379;48.888;8.330;2022-12-29T07:11:04;5.28;;;1.33;;
75768;SDS011;64379;48.888;8.330;2022-12-29T07:13:30;4.05;;;1.20;;
75768;SDS011;64379;48.888;8.330;2022-12-29T07:15:56;5.05;;;1.40;;
75768;SDS011;64379;48.888;8.330;2022-12-29T07:18:21;4.40;;;1.30;;
75768;SDS011;64379;48.888;8.330;2022-12-29T07:20:47;2.25;;;1.02;;
75768;SDS011;64379;48.888;8.330;2022-12-29T07:23:13;3.92;;;1.20;;
75768;SDS011;64379;48.888;8.330;2022-12-29T07:25:38;3.75;;;1.27;;
75768;SDS011;64379;48.888;8.330;2022-12-29T07:28:06;3.92;;;1.27;;
75768;SDS011;64379;48.888;8.330;2022-12-29T07:30:32;4.30;;;1.33;;
75768;SDS011;64379;48.888;8.330;2022-12-29T07:32:57;2.63;;;1.10;;
75768;SDS011;64379;48.888;8.330;2022-12-29T07:35:23;3.63;;;1.50;;
75768;SDS011;64379;48.888;8.330;2022-12-29T07:37:49;3.78;;;1.55;;
75768;SDS011;64379;48.888;8.330;2022-12-29T07:40:15;3.17;;;1.23;;
75768;SDS011;64379;48.888;8.330;2022-12-29T07:42:41;4.57;;;1.48;;
75768;SDS011;64379;48.888;8.330;2022-12-29T07:45:06;3.70;;;1.20;;
75768;SDS011;64379;48.888;8.330;2022-12-29T07:47:34;4.80;;;1.20;;
75768;SDS011;64379;48.888;8.330;2022-12-29T07:49:59;3.90;;;1.02;;
75768;SDS011;64379;48.888;8.330;2022-12-29T07:52:25;2.72;;;1.10;;
75768;SDS011;64379;48.888;8.330;2022-12-29T07:54:51;5.78;;;1.38;;
75768;SDS011;64379;48.888;8.330;2022-12-29T07:57:16;4.60;;;1.23;;
75768;SDS011;64379;48.888;8.330;2022-12-29T07:59:42;4.63;;;1.50;;
75768;SDS011;64379;48.888;8.330;2022-12-29T08:02:11;2.58;;;1.05;;
75768;SDS011;64379;48.888;8.330;2022-12-29T08:04:37;3.45;;;1.30;;
75768;SDS011;64379;48.888;8.330;2022-12-29T08:07:03;2.58;;;1.27;;
75768;SDS011;64379;48.888;8.330;2022-12-29T08:09:28;6.40;;;1.58;;
75768;SDS011;64379;48.888;8.330;2022-12-29T08:11:54;2.80;;;1.20;;
75768;SDS011;64379;48.888;8.330;2022-12-29T08:14:19;4.07;;;1.35;;
75768;SDS011;64379;48.888;8.330;2022-12-29T08:16:45;4.32;;;1.42;;
75768;SDS011;64379;48.888;8.330;2022-12-29T08:19:11;3.83;;;1.30;;
75768;SDS011;64379;48.888;8.330;2022-12-29T08:21:38;5.57;;;1.27;;
75768;SDS011;64379;48.888;8.330;2022-12-29T08:24:03;3.65;;;1.38;;
75768;SDS011;64379;48.888;8.330;2022-12-29T08:45:47;3.40;;;1.40;;
75768;SDS011;64379;48.888;8.330;2022-12-29T08:48:13;4.25;;;1.48;;
75768;SDS011;64379;48.888;8.330;2022-12-29T08:50:47;3.35;;;1.20;;
75768;SDS011;64379;48.888;8.330;2022-12-29T08:53:16;4.18;;;1.10;;
75768;SDS011;64379;48.888;8.330;2022-12-29T08:55:44;6.50;;;1.33;;
75768;SDS011;64379;48.888;8.330;2022-12-29T08:58:11;4.25;;;1.35;;
75768;SDS011;64379;48.888;8.330;2022-12-29T09:00:39;5.10;;;1.33;;
75768;SDS011;64379;48.888;8.330;2022-12-29T09:03:07;6.22;;;1.30;;
75768;SDS011;64379;48.888;8.330;2022-12-29T09:05:33;4.00;;;1.20;;
75768;SDS011;64379;48.888;8.330;2022-12-29T09:07:58;2.67;;;1.00;;
75768;SDS011;64379;48.888;8.330;2022-12-29T09:10:24;4.45;;;1.30;;
75768;SDS011;64379;48.888;8.330;2022-12-29T09:12:49;3.72;;;1.10;;
75768;SDS011;64379;48.888;8.330;2022-12-29T09:15:15;4.38;;;1.30;;
75768;SDS011;64379;48.888;8.330;2022-12-29T09:17:41;3.65;;;1.17;;
75768;SDS011;64379;48.888;8.330;2022-12-29T09:20:10;3.30;;;0.90;;
75768;SDS011;64379;48.888;8.330;2022-12-29T09:22:38;1.88;;;0.98;;
75768;SDS011;64379;48.888;8.330;2022-12-29T09:25:04;2.97;;;0.90;;
75768;SDS011;64379;48.888;8.330;2022-12-29T09:27:30;2.85;;;1.23;;
75768;SDS011;64379;48.888;8.330;2022-12-29T09:29:56;6.25;;;1.10;;
75768;SDS011;64379;48.888;8.330;2022-12-29T09:32:21;2.95;;;1.20;;
75768;SDS011;64379;48.888;8.330;2022-12-29T09:34:47;3.17;;;1.23;;
75768;SDS011;64379;48.888;8.330;2022-12-29T09:37:13;3.72;;;1.35;;
75768;SDS011;64379;48.888;8.330;2022-12-29T09:39:38;4.43;;;1.10;;
75768;SDS011;64379;48.888;8.330;2022-12-29T09:42:19;4.03;;;1.20;;
75768;SDS011;64379;48.888;8.330;2022-12-29T09:47:20;3.88;;;1.00;;
75768;SDS011;64379;48.888;8.330;2022-12-29T09:52:27;5.55;;;1.20;;
75768;SDS011;64379;48.888;8.330;2022-12-29T09:55:02;4.72;;;1.23;;
75768;SDS011;64379;48.888;8.330;2022-12-29T10:00:05;5.90;;;1.33;;
75768;SDS011;64379;48.888;8.330;2022-12-29T10:02:49;3.65;;;1.30;;
75768;SDS011;64379;48.888;8.330;2022-12-29T10:10:23;4.40;;;1.60;;
75768;SDS011;64379;48.888;8.330;2022-12-29T10:13:20;3.83;;;1.25;;
75768;SDS011;64379;48.888;8.330;2022-12-29T10:16:00;5.40;;;1.15;;
75768;SDS011;64379;48.888;8.330;2022-12-29T10:24:04;3.80;;;1.35;;
75768;SDS011;64379;48.888;8.330;2022-12-29T10:26:42;2.45;;;1.08;;
75768;SDS011;64379;48.888;8.330;2022-12-29T10:29:19;4.03;;;1.50;;
75768;SDS011;64379;48.888;8.330;2022-12-29T10:32:00;4.18;;;1.35;;
75768;SDS011;64379;48.888;8.330;2022-12-29T10:34:41;4.50;;;1.48;;
75768;SDS011;64379;48.888;8.330;2022-12-29T10:37:18;3.92;;;1.05;;
75768;SDS011;64379;48.888;8.330;2022-12-29T10:39:59;3.80;;;1.05;;
75768;SDS011;64379;48.888;8.330;2022-12-29T10:42:29;3.80;;;1.13;;
75768;SDS011;64379;48.888;8.330;2022-12-29T10:45:02;3.20;;;1.10;;
75768;SDS011;64379;48.888;8.330;2022-12-29T10:47:30;3.72;;;1.30;;
75768;SDS011;64379;48.888;8.330;2022-12-29T10:50:01;4.55;;;1.50;;
75768;SDS011;64379;48.888;8.330;2022-12-29T10:52:28;2.75;;;1.20;;
75768;SDS011;64379;48.888;8.330;2022-12-29T10:55:10;2.80;;;1.23;;
75768;SDS011;64379;48.888;8.330;2022-12-29T10:57:41;3.45;;;1.30;;
75768;SDS011;64379;48.888;8.330;2022-12-29T11:08:26;7.45;;;1.50;;
75768;SDS011;64379;48.888;8.330;2022-12-29T11:11:00;5.75;;;1.50;;
75768;SDS011;64379;48.888;8.330;2022-12-29T11:13:31;3.95;;;1.25;;
75768;SDS011;64379;48.888;8.330;2022-12-29T11:15:59;3.38;;;1.00;;
75768;SDS011;64379;48.888;8.330;2022-12-29T11:18:26;3.50;;;1.20;;
75768;SDS011;64379;48.888;8.330;2022-12-29T11:20:58;2.42;;;1.05;;
75768;SDS011;64379;48.888;8.330;2022-12-29T11:26:18;3.45;;;1.08;;
75768;SDS011;64379;48.888;8.330;2022-12-29T11:28:46;4.30;;;1.08;;
75768;SDS011;64379;48.888;8.330;2022-12-29T11:31:33;3.42;;;0.90;;
75768;SDS011;64379;48.888;8.330;2022-12-29T11:34:21;2.80;;;1.00;;
75768;SDS011;64379;48.888;8.330;2022-12-29T11:37:00;2.83;;;0.77;;
75768;SDS011;64379;48.888;8.330;2022-12-29T11:42:34;1.65;;;0.70;;
75768;SDS011;64379;48.888;8.330;2022-12-29T11:45:06;2.13;;;0.70;;
75768;SDS011;64379;48.888;8.330;2022-12-29T11:47:41;0.95;;;0.60;;
75768;SDS011;64379;48.888;8.330;2022-12-29T11:50:15;2.40;;;0.63;;
75768;SDS011;64379;48.888;8.330;2022-12-29T11:52:43;2.53;;;0.70;;
75768;SDS011;64379;48.888;8.330;2022-12-29T11:55:16;1.70;;;0.63;;
75768;SDS011;64379;48.888;8.330;2022-12-29T11:57:49;1.27;;;0.40;;
75768;SDS011;64379;48.888;8.330;2022-12-29T12:00:18;1.30;;;0.50;;
75768;SDS011;64379;48.888;8.330;2022-12-29T12:03:07;2.53;;;1.00;;
75768;SDS011;64379;48.888;8.330;2022-12-29T12:05:43;2.47;;;0.82;;
75768;SDS011;64379;48.888;8.330;2022-12-29T12:08:39;2.10;;;0.80;;
75768;SDS011;64379;48.888;8.330;2022-12-29T12:11:36;1.40;;;0.60;;
75768;SDS011;64379;48.888;8.330;2022-12-29T12:21:41;2.22;;;0.60;;
75768;SDS011;64379;48.888;8.330;2022-12-29T12:27:12;2.20;;;0.82;;
75768;SDS011;64379;48.888;8.330;2022-12-29T12:35:07;4.38;;;1.08;;
75768;SDS011;64379;48.888;8.330;2022-12-29T12:48:33;2.78;;;0.90;;
75768;SDS011;64379;48.888;8.330;2022-12-29T13:07:35;3.22;;;1.13;;
75768;SDS011;64379;48.888;8.330;2022-12-29T13:15:04;2.30;;;1.00;;
75768;SDS011;64379;48.888;8.330;2022-12-29T13:20:55;3.58;;;1.30;;
75768;SDS011;64379;48.888;8.330;2022-12-29T13:31:50;5.32;;;1.65;;
75768;SDS011;64379;48.888;8.330;2022-12-29T13:34:41;5.10;;;1.90;;
75768;SDS011;64379;48.888;8.330;2022-12-29T13:37:12;5.50;;;2.05;;
75768;SDS011;64379;48.888;8.330;2022-12-29T13:39:43;5.35;;;1.58;;
75768;SDS011;64379;48.888;8.330;2022-12-29T13:42:41;3.90;;;1.27;;
75768;SDS011;64379;48.888;8.330;2022-12-29T13:45:26;2.75;;;1.10;;
75768;SDS011;64379;48.888;8.330;2022-12-29T13:47:57;3.67;;;1.30;;
75768;SDS011;64379;48.888;8.330;2022-12-29T13:50:27;3.20;;;1.10;;
75768;SDS011;64379;48.888;8.330;2022-12-29T13:53:01;2.00;;;1.00;;
75768;SDS011;64379;48.888;8.330;2022-12-29T14:00:58;2.95;;;1.10;;
75768;SDS011;64379;48.888;8.330;2022-12-29T14:06:27;3.10;;;1.17;;
75768;SDS011;64379;48.888;8.330;2022-12-29T14:08:56;2.88;;;0.90;;
75768;SDS011;64379;48.888;8.330;2022-12-29T14:11:34;3.35;;;0.93;;
75768;SDS011;64379;48.888;8.330;2022-12-29T14:14:17;4.43;;;1.25;;
75768;SDS011;64379;48.888;8.330;2022-12-29T14:16:48;4.32;;;1.20;;
75768;SDS011;64379;48.888;8.330;2022-12-29T14:19:17;4.85;;;1.77;;
75768;SDS011;64379;48.888;8.330;2022-12-29T14:21:52;5.72;;;1.90;;
75768;SDS011;64379;48.888;8.330;2022-12-29T14:34:46;4.70;;;1.50;;
75768;SDS011;64379;48.888;8.330;2022-12-29T14:37:23;3.90;;;1.73;;
75768;SDS011;64379;48.888;8.330;2022-12-29T14:42:43;4.80;;;1.30;;
75768;SDS011;64379;48.888;8.330;2022-12-29T14:47:39;2.80;;;0.88;;
75768;SDS011;64379;48.888;8.330;2022-12-29T14:52:47;1.13;;;0.57;;
75768;SDS011;64379;48.888;8.330;2022-12-29T14:58:05;3.55;;;0.75;;
75768;SDS011;64379;48.888;8.330;2022-12-29T15:00:40;1.38;;;0.70;;
75768;SDS011;64379;48.888;8.330;2022-12-29T15:03:12;2.95;;;0.85;;
75768;SDS011;64379;48.888;8.330;2022-12-29T15:05:47;1.30;;;0.70;;
75768;SDS011;64379;48.888;8.330;2022-12-29T15:08:24;2.80;;;0.80;;
75768;SDS011;64379;48.888;8.330;2022-12-29T15:10:57;2.75;;;0.73;;
75768;SDS011;64379;48.888;8.330;2022-12-29T15:13:44;2.97;;;0.90;;
75768;SDS011;64379;48.888;8.330;2022-12-29T15:16:20;2.55;;;0.70;;
75768;SDS011;64379;48.888;8.330;2022-12-29T15:18:57;3.58;;;0.80;;
75768;SDS011;64379;48.888;8.330;2022-12-29T15:21:25;1.52;;;0.80;;
75768;SDS011;64379;48.888;8.330;2022-12-29T15:23:52;1.90;;;0.98;;
75768;SDS011;64379;48.888;8.330;2022-12-29T15:26:18;4.60;;;1.23;;
75768;SDS011;64379;48.888;8.330;2022-12-29T15:28:48;3.55;;;1.00;;
75768;SDS011;64379;48.888;8.330;2022-12-29T15:31:22;3.45;;;1.00;;
75768;SDS011;64379;48.888;8.330;2022-12-29T15:33:51;2.28;;;0.88;;
75768;SDS011;64379;48.888;8.330;2022-12-29T15:36:27;5.55;;;1.20;;
75768;SDS011;64379;48.888;8.330;2022-12-29T15:38:54;2.60;;;0.77;;
75768;SDS011;64379;48.888;8.330;2022-12-29T15:41:25;3.22;;;0.60;;
75768;SDS011;64379;48.888;8.330;2022-12-29T15:46:51;3.85;;;0.47;;
75768;SDS011;64379;48.888;8.330;2022-12-29T15:49:17;1.83;;;0.80;;
75768;SDS011;64379;48.888;8.330;2022-12-29T15:51:43;2.00;;;0.68;;
75768;SDS011;64379;48.888;8.330;2022-12-29T15:54:15;2.85;;;0.80;;
75768;SDS011;64379;48.888;8.330;2022-12-29T15:56:43;2.13;;;0.70;;
75768;SDS011;64379;48.888;8.330;2022-12-29T15:59:28;3.15;;;0.77;;
75768;SDS011;64379;48.888;8.330;2022-12-29T16:01:59;1.55;;;0.57;;
75768;SDS011;64379;48.888;8.330;2022-12-29T16:04:27;3.08;;;0.80;;
75768;SDS011;64379;48.888;8.330;2022-12-29T16:06:58;2.45;;;0.82;;
75768;SDS011;64379;48.888;8.330;2022-12-29T16:09:34;1.17;;;0.60;;
75768;SDS011;64379;48.888;8.330;2022-12-29T16:12:07;3.42;;;1.10;;
75768;SDS011;64379;48.888;8.330;2022-12-29T16:14:43;3.42;;;0.73;;
75768;SDS011;64379;48.888;8.330;2022-12-29T16:17:22;3.78;;;0.77;;
75768;SDS011;64379;48.888;8.330;2022-12-29T16:22:30;2.53;;;0.82;;
75768;SDS011;64379;48.888;8.330;2022-12-29T16:25:03;6.07;;;1.08;;
75768;SDS011;64379;48.888;8.330;2022-12-29T16:27:41;1.48;;;0.50;;
75768;SDS011;64379;48.888;8.330;2022-12-29T16:30:20;2.10;;;0.90;;
75768;SDS011;64379;48.888;8.330;2022-12-29T16:32:48;3.83;;;1.08;;
75768;SDS011;64379;48.888;8.330;2022-12-29T16:35:23;3.08;;;0.80;;
75768;SDS011;64379;48.888;8.330;2022-12-29T16:40:50;2.70;;;0.95;;
75768;SDS011;64379;48.888;8.330;2022-12-29T16:43:21;3.10;;;0.90;;
75768;SDS011;64379;48.888;8.330;2022-12-29T16:46:16;3.33;;;0.90;;
75768;SDS011;64379;48.888;8.330;2022-12-29T16:48:46;3.25;;;0.93;;
75768;SDS011;64379;48.888;8.330;2022-12-29T16:51:39;2.88;;;0.65;;
75768;SDS011;64379;48.888;8.330;2022-12-29T16:54:05;1.95;;;0.52;;
75768;SDS011;64379;48.888;8.330;2022-12-29T16:56:33;4.18;;;0.70;;
75768;SDS011;64379;48.888;8.330;2022-12-29T16:59:05;2.55;;;0.82;;
75768;SDS011;64379;48.888;8.330;2022-12-29T17:01:55;4.32;;;0.95;;
75768;SDS011;64379;48.888;8.330;2022-12-29T17:04:22;4.53;;;0.88;;
75768;SDS011;64379;48.888;8.330;2022-12-29T17:06:48;2.30;;;0.90;;
75768;SDS011;64379;48.888;8.330;2022-12-29T17:09:21;2.92;;;0.85;;
75768;SDS011;64379;48.888;8.330;2022-12-29T17:11:49;4.38;;;1.05;;
75768;SDS011;64379;48.888;8.330;2022-12-29T17:14:23;2.90;;;0.90;;
75768;SDS011;64379;48.888;8.330;2022-12-29T17:16:58;2.22;;;0.90;;
75768;SDS011;64379;48.888;8.330;2022-12-29T17:19:34;3.67;;;1.13;;
75768;SDS011;64379;48.888;8.330;2022-12-29T17:22:02;2.63;;;0.95;;
75768;SDS011;64379;48.888;8.330;2022-12-29T17:24:34;2.72;;;0.70;;
75768;SDS011;64379;48.888;8.330;2022-12-29T17:27:00;3.13;;;1.05;;
75768;SDS011;64379;48.888;8.330;2022-12-29T17:29:38;4.50;;;1.23;;
75768;SDS011;64379;48.888;8.330;2022-12-29T17:32:07;2.55;;;0.93;;
75768;SDS011;64379;48.888;8.330;2022-12-29T17:34:38;3.78;;;0.95;;
75768;SDS011;64379;48.888;8.330;2022-12-29T17:39:47;3.97;;;1.10;;
75768;SDS011;64379;48.888;8.330;2022-12-29T17:42:13;6.13;;;1.20;;
75768;SDS011;64379;48.888;8.330;2022-12-29T17:44:39;4.97;;;0.90;;
75768;SDS011;64379;48.888;8.330;2022-12-29T17:47:07;3.92;;;0.90;;
75768;SDS011;64379;48.888;8.330;2022-12-29T17:49:35;4.63;;;0.98;;
75768;SDS011;64379;48.888;8.330;2022-12-29T17:52:01;3.17;;;0.77;;
75768;SDS011;64379;48.888;8.330;2022-12-29T17:54:27;3.55;;;0.98;;
75768;SDS011;64379;48.888;8.330;2022-12-29T17:56:53;3.75;;;0.98;;
75768;SDS011;64379;48.888;8.330;2022-12-29T17:59:18;5.20;;;0.90;;
75768;SDS011;64379;48.888;8.330;2022-12-29T18:01:45;3.05;;;0.77;;
75768;SDS011;64379;48.888;8.330;2022-12-29T18:04:12;5.90;;;0.95;;
75768;SDS011;64379;48.888;8.330;2022-12-29T18:06:40;4.57;;;0.90;;
75768;SDS011;64379;48.888;8.330;2022-12-29T18:09:10;6.53;;;1.15;;
75768;SDS011;64379;48.888;8.330;2022-12-29T18:11:40;4.70;;;0.70;;
75768;SDS011;64379;48.888;8.330;2022-12-29T18:14:16;4.50;;;0.70;;
75768;SDS011;64379;48.888;8.330;2022-12-29T18:16:42;2.88;;;0.70;;
75768;SDS011;64379;48.888;8.330;2022-12-29T18:19:08;4.07;;;0.80;;
75768;SDS011;64379;48.888;8.330;2022-12-29T18:21:34;5.45;;;1.05;;
75768;SDS011;64379;48.888;8.330;2022-12-29T18:24:02;8.18;;;1.30;;
75768;SDS011;64379;48.888;8.330;2022-12-29T18:26:28;5.72;;;1.10;;
75768;SDS011;64379;48.888;8.330;2022-12-29T18:28:58;5.85;;;1.10;;
75768;SDS011;64379;48.888;8.330;2022-12-29T18:31:25;4.50;;;1.05;;